Time;durP1;ratioP1;P1;durP2;ratioP2;P2;SDS_P1;SDS_P2;PMS_P1;PMS_P2;Temp;Humidity;BMP_temperature;BMP_pressure;BME280_temperature;BME280_humidity;BME280_pressure;Samples;Min_cycle;Max_cycle;Signal;HPM_P1;HPM_P2
2021/10/02 00:45:03;;;;;;;16.85;11.83;;;;;;;8.68;74.96;100299.90;254659;1107;115205;-67
2021/10/02 00:50:07;;;;;;;12.13;10.87;;;;;;;8.64;74.85;100303.99;253635;1102;115426;-67
2021/10/02 00:55:10;;;;;;;19.18;11.80;;;;;;;8.54;74.95;100285.84;253329;1107;115385;-66
2021/10/02 01:00:13;;;;;;;17.30;11.83;;;;;;;8.51;74.78;100285.44;253121;1107;115553;-67
2021/10/02 01:05:58;;;;;;;14.60;12.18;;;;;;;8.47;75.60;100289.53;253161;1107;115024;-66
2021/10/02 01:11:23;;;;;;;15.55;13.03;;;;;;;8.47;75.75;100287.69;255205;1107;115396;-67
2021/10/02 01:16:34;;;;;;;16.50;11.00;;;;;;;8.40;75.57;100271.75;253031;1107;115370;-66
2021/10/02 01:21:58;;;;;;;17.50;12.23;;;;;;;8.40;76.43;100274.41;254238;1107;115340;-67
2021/10/02 01:27:16;;;;;;;19.97;13.00;;;;;;;8.42;75.71;100268.89;253611;1107;115126;-67
2021/10/02 01:32:29;;;;;;;13.80;11.40;;;;;;;8.39;75.80;100264.81;254709;1107;116141;-67
2021/10/02 01:38:03;;;;;;;15.90;11.83;;;;;;;8.41;75.72;100257.45;254537;1107;115720;-67
2021/10/02 01:48:31;;;;;;;17.65;13.80;;;;;;;8.33;76.04;100252.35;255641;1107;115548;-69
2021/10/02 01:53:38;;;;;;;23.60;16.15;;;;;;;8.37;76.02;100250.91;254780;1107;116476;-68
2021/10/02 01:58:44;;;;;;;21.95;17.33;;;;;;;8.40;76.26;100247.84;256157;1107;115655;-67
2021/10/02 02:03:53;;;;;;;21.18;15.40;;;;;;;8.46;77.23;100234.77;256173;1106;116582;-66
2021/10/02 02:08:58;;;;;;;22.28;15.38;;;;;;;8.55;76.68;100225.55;256266;1107;116204;-68
2021/10/02 02:14:04;;;;;;;29.23;17.00;;;;;;;8.69;77.39;100219.95;254025;1107;115435;-68
2021/10/02 02:19:08;;;;;;;20.52;14.43;;;;;;;8.75;77.31;100211.15;255117;1106;116170;-69
2021/10/02 02:24:13;;;;;;;24.68;17.60;;;;;;;8.78;77.60;100207.25;254776;1107;115549;-66
2021/10/02 02:29:17;;;;;;;30.65;18.93;;;;;;;8.88;77.63;100209.44;254433;1108;115622;-67
2021/10/02 02:34:20;;;;;;;29.93;18.13;;;;;;;8.99;77.07;100211.44;255487;1103;115440;-68
2021/10/02 02:39:25;;;;;;;23.63;17.00;;;;;;;9.01;76.81;100209.38;254871;1103;115710;-68
2021/10/02 02:44:29;;;;;;;29.25;15.55;;;;;;;8.97;77.34;100203.67;256203;1107;115475;-68
2021/10/02 02:49:37;;;;;;;24.30;16.58;;;;;;;8.95;77.07;100202.25;254791;1103;116303;-66
2021/10/02 02:54:47;;;;;;;27.27;17.57;;;;;;;8.93;76.58;100198.98;253571;1102;115859;-68
2021/10/02 03:00:08;;;;;;;32.73;19.93;;;;;;;8.85;77.15;100199.25;254050;1101;115549;-68
2021/10/02 03:05:16;;;;;;;35.03;19.28;;;;;;;8.74;76.72;100182.94;253365;1107;115596;-66
2021/10/02 03:10:21;;;;;;;32.00;17.43;;;;;;;8.68;76.76;100180.30;253896;1107;115654;-68
2021/10/02 03:15:26;;;;;;;25.65;17.60;;;;;;;8.58;76.56;100175.42;253892;1102;116268;-68
2021/10/02 03:20:30;;;;;;;28.70;18.80;;;;;;;8.54;77.32;100166.27;253705;1107;116161;-68
2021/10/02 03:25:34;;;;;;;26.17;16.83;;;;;;;8.46;76.96;100168.34;253251;1103;116292;-68
2021/10/02 03:30:38;;;;;;;23.13;15.38;;;;;;;8.42;77.15;100168.76;255073;1107;116128;-69
2021/10/02 03:35:42;;;;;;;28.18;15.88;;;;;;;8.42;76.72;100174.07;254725;1103;116238;-68
2021/10/02 03:40:47;;;;;;;27.67;17.17;;;;;;;8.42;77.51;100158.13;253256;1107;116278;-67
2021/10/02 03:45:49;;;;;;;29.00;18.23;;;;;;;8.37;77.99;100155.28;253853;1107;116307;-66
2021/10/02 03:50:54;;;;;;;33.70;19.33;;;;;;;8.35;77.02;100161.83;256322;1107;115560;-67
2021/10/02 03:55:59;;;;;;;32.83;20.63;;;;;;;8.36;77.49;100161.63;256407;1107;116268;-66
2021/10/02 04:01:03;;;;;;;37.65;21.95;;;;;;;8.42;77.91;100154.66;254750;1107;115917;-67
2021/10/02 04:06:07;;;;;;;34.23;20.63;;;;;;;8.42;77.31;100147.50;256262;1107;116509;-67
2021/10/02 04:11:10;;;;;;;36.05;22.73;;;;;;;8.46;77.49;100155.88;255963;1107;115996;-67
2021/10/02 04:16:14;;;;;;;33.20;20.68;;;;;;;8.47;77.69;100146.06;255946;1107;116603;-67
2021/10/02 04:21:17;;;;;;;37.78;22.13;;;;;;;8.51;77.98;100144.62;255846;1107;115906;-67
2021/10/02 04:26:22;;;;;;;27.83;19.25;;;;;;;8.57;78.29;100151.72;253495;1107;115957;-67
2021/10/02 04:31:25;;;;;;;30.80;20.63;;;;;;;8.59;78.53;100144.35;255973;1107;116013;-67
2021/10/02 04:36:28;;;;;;;29.23;20.25;;;;;;;8.62;77.95;100144.75;254139;1107;115294;-67
2021/10/02 04:41:32;;;;;;;25.83;18.10;;;;;;;8.66;77.60;100145.14;255274;1107;115057;-67
2021/10/02 04:46:36;;;;;;;30.60;18.38;;;;;;;8.61;77.96;100145.78;254391;1107;115171;-67
2021/10/02 04:51:40;;;;;;;28.50;18.58;;;;;;;8.61;78.41;100144.96;254401;1107;115944;-66
2021/10/02 04:56:43;;;;;;;22.18;16.88;;;;;;;8.66;78.36;100145.14;254443;1107;115270;-67
2021/10/02 05:01:47;;;;;;;29.63;19.00;;;;;;;8.66;78.44;100142.48;253897;1102;115388;-66
2021/10/02 05:06:51;;;;;;;27.00;16.40;;;;;;;8.66;78.88;100137.17;253177;1107;114864;-67
2021/10/02 05:11:56;;;;;;;24.03;17.25;;;;;;;8.72;78.38;100136.33;253585;1107;115569;-67
2021/10/02 05:17:00;;;;;;;29.90;18.40;;;;;;;8.77;77.85;100139.98;253913;1107;115555;-67
2021/10/02 05:22:04;;;;;;;28.47;17.83;;;;;;;8.85;78.44;100140.77;255388;1107;115454;-67
2021/10/02 05:27:09;;;;;;;26.25;16.35;;;;;;;8.95;78.77;100128.62;253168;1103;115587;-67
2021/10/02 05:32:13;;;;;;;24.98;17.58;;;;;;;9.03;78.43;100131.03;254070;1107;116245;-66
2021/10/02 05:37:17;;;;;;;25.75;18.38;;;;;;;9.14;78.29;100128.72;253506;1107;117013;-67
2021/10/02 05:42:21;;;;;;;24.45;17.38;;;;;;;9.22;78.44;100136.41;253955;1102;116053;-67
2021/10/02 05:47:24;;;;;;;27.88;16.45;;;;;;;9.26;78.46;100135.77;254285;1107;116227;-68
2021/10/02 05:52:28;;;;;;;27.25;16.85;;;;;;;9.41;78.60;100130.14;256156;1107;115792;-68
2021/10/02 05:57:31;;;;;;;19.88;13.98;;;;;;;9.58;78.93;100127.73;254122;1107;115617;-66
2021/10/02 06:02:34;;;;;;;25.18;16.75;;;;;;;9.69;78.85;100125.17;255389;1103;115372;-66
2021/10/02 06:07:38;;;;;;;24.75;16.88;;;;;;;9.90;78.68;100131.11;256101;1107;115750;-66
2021/10/02 06:12:42;;;;;;;21.80;16.13;;;;;;;10.12;78.59;100126.97;256080;1107;115993;-67
2021/10/02 06:17:46;;;;;;;21.55;14.18;;;;;;;10.25;78.79;100123.38;256352;1107;115938;-69
2021/10/02 06:22:49;;;;;;;21.20;13.67;;;;;;;10.41;78.33;100128.09;256227;1107;115325;-68
2021/10/02 06:27:52;;;;;;;21.45;15.48;;;;;;;10.58;78.40;100130.97;255975;1107;115822;-68
2021/10/02 06:32:58;;;;;;;26.13;18.95;;;;;;;10.77;78.61;100135.22;255179;1106;116022;-68
2021/10/02 06:38:03;;;;;;;21.30;15.78;;;;;;;11.04;78.15;100144.47;255909;1107;118432;-69
2021/10/02 06:43:07;;;;;;;24.50;13.78;;;;;;;11.38;78.17;100144.78;254231;1107;116313;-67
2021/10/02 06:48:13;;;;;;;21.33;14.88;;;;;;;11.66;78.00;100139.58;253906;1107;116310;-69
2021/10/02 06:53:18;;;;;;;18.00;12.50;;;;;;;11.94;77.77;100135.42;253743;1108;116303;-69
2021/10/02 06:58:22;;;;;;;19.63;13.08;;;;;;;12.13;77.24;100128.91;254627;1107;116497;-68
2021/10/02 07:03:26;;;;;;;21.60;12.28;;;;;;;12.40;76.99;100129.19;254934;1107;117253;-69
2021/10/02 07:08:31;;;;;;;21.35;14.40;;;;;;;12.70;76.62;100128.97;253643;1107;116302;-69
2021/10/02 07:13:35;;;;;;;18.50;13.08;;;;;;;12.87;76.40;100120.97;253269;1107;116531;-68
2021/10/02 07:18:38;;;;;;;20.50;12.67;;;;;;;12.97;76.62;100124.66;253628;1102;116779;-68
2021/10/02 07:23:46;;;;;;;22.70;13.93;;;;;;;13.06;75.82;100131.25;253384;1101;116416;-69
2021/10/02 07:28:53;;;;;;;16.83;11.83;;;;;;;13.14;76.02;100130.05;254480;1103;207241;-69
2021/10/02 07:33:56;;;;;;;15.38;11.93;;;;;;;13.26;75.54;100140.70;254423;1102;116745;-69
2021/10/02 07:38:59;;;;;;;19.25;10.70;;;;;;;13.32;75.79;100129.84;253415;1103;116727;-69
2021/10/02 07:44:04;;;;;;;18.10;9.55;;;;;;;13.44;75.19;100129.77;253356;1107;116725;-69
2021/10/02 07:49:09;;;;;;;13.60;9.90;;;;;;;13.54;75.65;100129.09;254755;1103;116185;-69
2021/10/02 07:54:14;;;;;;;9.63;8.63;;;;;;;13.71;75.61;100124.55;254474;1101;116088;-72
2021/10/02 07:59:20;;;;;;;11.68;9.30;;;;;;;13.93;75.37;100124.59;254514;1107;116189;-71
2021/10/02 08:04:25;;;;;;;11.83;8.88;;;;;;;14.13;74.46;100119.48;255433;1107;115891;-70
2021/10/02 08:09:28;;;;;;;11.20;9.60;;;;;;;14.31;74.65;100113.02;256311;1107;116532;-71
2021/10/02 08:14:32;;;;;;;12.08;10.20;;;;;;;14.53;73.97;100121.08;256095;1107;118710;-71
2021/10/02 08:19:41;;;;;;;11.43;10.00;;;;;;;14.76;73.65;100110.05;256205;1107;115583;-71
2021/10/02 08:24:46;;;;;;;10.88;9.85;;;;;;;15.03;73.56;100110.05;256205;1106;116044;-71
2021/10/02 08:29:51;;;;;;;17.18;9.45;;;;;;;15.27;73.45;100103.30;256294;1107;117144;-70
2021/10/02 08:34:58;;;;;;;13.97;11.07;;;;;;;15.51;72.67;100101.05;256112;1107;115591;-70
2021/10/02 08:40:11;;;;;;;9.90;8.70;;;;;;;15.65;72.33;100102.23;255533;1107;115919;-70
2021/10/02 08:45:18;;;;;;;11.20;10.00;;;;;;;15.85;72.15;100111.52;255541;1107;115545;-69
2021/10/02 08:50:21;;;;;;;9.70;8.65;;;;;;;16.09;71.57;100096.58;254903;1107;115795;-69
2021/10/02 08:55:25;;;;;;;11.50;10.30;;;;;;;16.38;71.71;100084.32;254012;1107;117642;-69
2021/10/02 09:00:31;;;;;;;12.50;9.68;;;;;;;16.66;71.64;100083.08;252959;1107;116030;-69
2021/10/02 09:05:35;;;;;;;15.48;10.20;;;;;;;16.97;70.71;100080.42;253116;1102;115789;-70
2021/10/02 09:10:40;;;;;;;12.73;10.25;;;;;;;17.14;70.04;100081.77;252900;1107;115808;-71
2021/10/02 09:15:44;;;;;;;12.73;11.05;;;;;;;17.30;69.68;100079.89;253141;1102;116863;-70
2021/10/02 09:21:01;;;;;;;17.53;10.75;;;;;;;17.54;69.58;100077.44;253375;1101;115296;-70
2021/10/02 09:26:05;;;;;;;11.80;10.70;;;;;;;17.86;69.33;100082.52;254279;1107;115882;-69
2021/10/02 09:31:09;;;;;;;20.23;12.08;;;;;;;18.10;68.51;100070.02;254160;1107;116586;-69
2021/10/02 09:36:24;;;;;;;14.80;11.63;;;;;;;18.20;67.69;100066.48;252854;1107;115837;-71
2021/10/02 09:41:29;;;;;;;13.50;10.80;;;;;;;18.39;67.73;100059.36;253032;1102;116115;-72
2021/10/02 09:46:36;;;;;;;13.63;10.95;;;;;;;18.73;67.13;100066.75;253085;1107;116143;-68
2021/10/02 09:51:42;;;;;;;12.43;11.13;;;;;;;18.80;66.45;100065.35;254380;1107;115793;-69
2021/10/02 09:57:11;;;;;;;11.93;8.97;;;;;;;18.90;65.90;100067.18;253688;1107;115749;-70
2021/10/02 10:02:25;;;;;;;16.28;11.05;;;;;;;19.02;65.96;100064.10;252985;1102;115799;-71
2021/10/02 10:07:52;;;;;;;9.03;7.53;;;;;;;19.28;64.91;100059.28;254041;1107;115091;-70
2021/10/02 10:13:02;;;;;;;14.47;10.83;;;;;;;19.25;64.81;100059.88;252758;1107;114676;-71
2021/10/02 10:18:12;;;;;;;16.73;12.07;;;;;;;19.23;64.30;100060.16;252765;1107;116062;-71
2021/10/02 10:23:30;;;;;;;13.45;11.70;;;;;;;19.33;63.93;100054.64;254461;1107;115337;-71
2021/10/02 10:28:38;;;;;;;14.20;12.73;;;;;;;19.72;64.52;100051.85;253237;1107;115818;-70
2021/10/02 10:33:52;;;;;;;12.48;10.78;;;;;;;20.09;63.72;100036.81;253018;1107;116074;-70
2021/10/02 10:38:56;;;;;;;19.25;11.70;;;;;;;20.23;62.87;100034.19;256117;1107;115487;-69
2021/10/02 10:44:01;;;;;;;13.63;12.30;;;;;;;20.13;62.55;100046.77;256142;1106;115437;-70
2021/10/02 10:49:04;;;;;;;16.43;12.53;;;;;;;20.13;62.10;100033.24;256250;1107;116141;-71
2021/10/02 10:54:17;;;;;;;13.60;12.15;;;;;;;20.18;62.03;100038.56;256229;1107;116383;-71
2021/10/02 10:59:51;;;;;;;15.98;11.53;;;;;;;20.49;62.12;100027.34;255103;1107;115661;-69
2021/10/02 11:04:56;;;;;;;14.00;11.55;;;;;;;20.88;61.41;100016.19;255385;1107;115388;-69
2021/10/02 11:10:00;;;;;;;12.63;11.38;;;;;;;20.96;60.86;100015.52;255186;1107;115712;-70
2021/10/02 11:15:09;;;;;;;15.35;12.75;;;;;;;21.05;60.64;100002.09;255376;1107;116185;-70
2021/10/02 11:20:17;;;;;;;12.68;10.88;;;;;;;20.87;59.54;100006.45;255905;1107;115759;-70
2021/10/02 11:25:23;;;;;;;14.45;11.33;;;;;;;20.73;59.89;100009.13;254255;1107;116150;-68
2021/10/02 11:30:46;;;;;;;22.28;11.83;;;;;;;20.84;59.72;100007.03;252854;1103;116422;-68
2021/10/02 11:35:51;;;;;;;18.10;11.05;;;;;;;20.61;59.32;100000.63;253952;1102;116256;-70
2021/10/02 11:40:55;;;;;;;11.10;10.00;;;;;;;20.87;59.30;99992.89;253091;1107;116636;-70
2021/10/02 11:46:04;;;;;;;12.98;11.78;;;;;;;20.94;59.03;99993.33;253393;1107;115454;-69
2021/10/02 11:51:18;;;;;;;11.30;10.13;;;;;;;20.94;58.44;100003.36;253054;1107;116126;-69
2021/10/02 11:56:31;;;;;;;12.13;10.88;;;;;;;20.96;58.37;99993.03;254889;1107;115674;-70
2021/10/02 12:01:43;;;;;;;16.67;11.13;;;;;;;20.90;58.08;99992.31;253381;1107;114811;-69
2021/10/02 12:06:47;;;;;;;15.10;11.80;;;;;;;20.94;58.21;99998.75;252847;1107;115403;-69
2021/10/02 12:11:52;;;;;;;18.30;11.68;;;;;;;21.13;57.97;99991.35;254784;1107;115679;-72
2021/10/02 12:16:55;;;;;;;11.33;9.23;;;;;;;21.01;57.54;99985.63;253495;1103;115756;-71
2021/10/02 12:22:09;;;;;;;12.00;10.00;;;;;;;20.86;57.40;99985.87;252950;1107;115576;-71
2021/10/02 12:27:16;;;;;;;13.43;11.25;;;;;;;20.62;57.30;99974.35;252801;1107;116460;-70
2021/10/02 12:32:22;;;;;;;13.55;12.20;;;;;;;20.32;57.41;99965.56;254506;1107;115576;-69
2021/10/02 12:37:26;;;;;;;13.90;11.73;;;;;;;20.25;57.91;99951.59;253602;1106;115428;-67
2021/10/02 12:42:40;;;;;;;11.53;10.10;;;;;;;20.40;58.12;99962.23;252776;1107;115737;-68
2021/10/02 12:47:48;;;;;;;11.75;10.28;;;;;;;20.66;57.60;99975.38;253190;1107;115240;-70
2021/10/02 12:52:53;;;;;;;16.15;13.08;;;;;;;20.75;57.26;99958.16;252941;1107;115705;-69
2021/10/02 12:57:56;;;;;;;14.15;10.30;;;;;;;20.84;56.75;99959.06;252999;1101;115359;-70
2021/10/02 13:03:03;;;;;;;12.13;11.00;;;;;;;20.76;56.58;99961.67;253794;1107;221776;-68
2021/10/02 13:08:19;;;;;;;21.73;11.48;;;;;;;20.66;56.13;99959.13;253324;1107;116644;-70
2021/10/02 13:13:23;;;;;;;11.10;9.93;;;;;;;20.57;56.13;99952.77;254652;1103;115367;-70
2021/10/02 13:18:30;;;;;;;13.55;11.15;;;;;;;20.58;56.34;99949.76;253705;1102;115339;-71
2021/10/02 13:23:39;;;;;;;11.68;10.53;;;;;;;20.50;56.26;99945.81;253175;1107;115465;-71
2021/10/02 13:28:46;;;;;;;13.03;11.08;;;;;;;20.41;56.12;99954.92;253023;1107;115170;-69
2021/10/02 13:33:53;;;;;;;12.58;11.28;;;;;;;20.36;56.22;99968.50;254063;1101;115948;-71
2021/10/02 13:39:11;;;;;;;23.10;10.35;;;;;;;20.30;55.59;99956.93;254023;1107;115515;-70
2021/10/02 13:44:27;;;;;;;14.65;10.70;;;;;;;20.28;55.92;99959.13;254525;1107;115306;-70
2021/10/02 13:49:32;;;;;;;12.58;11.30;;;;;;;20.22;55.65;99960.30;253885;1107;115841;-69
2021/10/02 13:54:37;;;;;;;12.93;11.18;;;;;;;20.15;55.90;99970.70;253980;1107;116148;-70
2021/10/02 13:59:41;;;;;;;17.83;10.73;;;;;;;19.98;55.75;99976.59;253193;1102;116043;-71
2021/10/02 14:04:44;;;;;;;14.43;10.50;;;;;;;19.97;55.88;99979.59;252652;1107;117183;-70
2021/10/02 14:09:47;;;;;;;12.00;10.88;;;;;;;19.84;55.75;99981.93;252732;1107;117410;-69
2021/10/02 14:14:50;;;;;;;13.63;11.63;;;;;;;19.75;55.81;99990.97;254200;1107;140084;-70
2021/10/02 14:19:53;;;;;;;13.20;10.20;;;;;;;19.71;56.10;99989.93;253654;1106;115772;-70
2021/10/02 14:24:58;;;;;;;24.68;11.35;;;;;;;19.57;56.22;99991.73;253233;1107;115725;-70
2021/10/02 14:30:07;;;;;;;13.00;10.88;;;;;;;19.47;56.33;99989.91;252899;1107;115664;-71
2021/10/02 14:35:13;;;;;;;21.40;12.13;;;;;;;19.36;56.62;99994.61;255743;1107;116653;-70
2021/10/02 14:40:16;;;;;;;15.38;10.45;;;;;;;19.29;56.47;99985.22;256190;1107;115897;-70
2021/10/02 14:45:33;;;;;;;11.28;10.08;;;;;;;19.26;56.48;99980.41;256061;1107;115705;-70
2021/10/02 14:50:39;;;;;;;12.73;11.63;;;;;;;19.16;56.60;99976.70;253624;1107;115871;-69
2021/10/02 14:55:50;;;;;;;13.95;10.38;;;;;;;19.09;57.02;99972.72;256289;1107;115867;-70
2021/10/02 15:00:54;;;;;;;16.20;10.17;;;;;;;18.95;56.48;99969.90;256005;1107;118525;-70
2021/10/02 15:05:57;;;;;;;15.50;11.40;;;;;;;18.88;56.94;99974.81;256158;1106;115804;-69
2021/10/02 15:11:02;;;;;;;20.93;12.48;;;;;;;18.83;56.71;99964.05;254740;1107;116108;-69
2021/10/02 15:16:06;;;;;;;12.43;9.88;;;;;;;18.75;56.69;99957.36;254581;1107;116350;-69
2021/10/02 15:21:11;;;;;;;13.15;11.35;;;;;;;18.64;57.15;99957.75;254031;1107;117014;-71
2021/10/02 15:26:20;;;;;;;15.73;11.45;;;;;;;18.47;57.42;99953.50;253231;1106;117636;-68
2021/10/02 15:31:24;;;;;;;13.23;11.93;;;;;;;18.32;57.74;99955.52;253334;1106;116036;-70
2021/10/02 15:36:27;;;;;;;16.97;11.93;;;;;;;18.11;58.03;99960.22;254814;1101;116525;-69
2021/10/02 15:41:31;;;;;;;18.23;12.25;;;;;;;17.92;58.15;99951.97;254120;1102;116438;-69
2021/10/02 15:46:37;;;;;;;18.43;12.68;;;;;;;17.68;58.67;99949.13;253627;1107;116893;-70
2021/10/02 15:51:41;;;;;;;16.83;12.88;;;;;;;17.50;58.79;99961.27;253252;1107;116094;-69
2021/10/02 15:56:49;;;;;;;16.00;13.40;;;;;;;17.31;58.82;99959.45;254271;1107;116670;-69
2021/10/02 16:02:02;;;;;;;18.28;13.28;;;;;;;17.13;59.26;99988.56;253484;1101;116225;-69
2021/10/02 16:07:07;;;;;;;15.28;12.20;;;;;;;16.94;59.44;99982.13;255447;1107;117083;-70
2021/10/02 16:12:12;;;;;;;16.00;12.27;;;;;;;16.75;59.68;99986.45;254128;1107;115565;-70
2021/10/02 16:17:16;;;;;;;10.95;9.85;;;;;;;16.57;59.74;99985.05;253381;1107;115761;-71
2021/10/02 16:22:20;;;;;;;14.93;11.73;;;;;;;16.47;60.03;99985.06;256264;1107;115671;-70
2021/10/02 16:27:27;;;;;;;23.68;14.85;;;;;;;16.36;60.23;99988.80;254995;1107;115988;-71
2021/10/02 16:32:30;;;;;;;19.45;14.70;;;;;;;16.23;60.42;100005.44;255079;1107;115556;-69
2021/10/02 16:37:35;;;;;;;26.65;12.45;;;;;;;16.06;60.53;99995.72;254995;1107;115450;-69
2021/10/02 16:42:39;;;;;;;16.18;12.33;;;;;;;15.96;60.44;99994.87;255570;1106;115801;-70
2021/10/02 16:47:42;;;;;;;17.13;13.05;;;;;;;15.80;61.13;99992.14;252929;1107;116533;-71
2021/10/02 16:52:45;;;;;;;18.83;13.05;;;;;;;15.64;61.05;99993.13;254250;1107;116024;-69
2021/10/02 16:57:48;;;;;;;23.33;13.67;;;;;;;15.51;61.25;100001.64;256107;1107;115902;-70
2021/10/02 17:02:52;;;;;;;19.80;14.63;;;;;;;15.41;61.44;99999.70;254178;1107;115488;-68
2021/10/02 17:07:55;;;;;;;17.23;11.65;;;;;;;15.42;61.76;100005.88;255980;1107;115547;-71
2021/10/02 17:12:59;;;;;;;26.95;14.33;;;;;;;15.42;62.04;100000.51;255713;1102;116060;-70
2021/10/02 17:18:04;;;;;;;24.23;15.10;;;;;;;15.40;62.21;100008.83;253268;1107;115966;-69
2021/10/02 17:23:09;;;;;;;20.75;14.28;;;;;;;15.40;62.51;100008.02;254843;1107;115750;-70
2021/10/02 17:28:13;;;;;;;20.07;14.47;;;;;;;15.32;62.59;100011.18;252797;1107;115545;-71
2021/10/02 17:33:17;;;;;;;24.25;14.88;;;;;;;15.21;62.38;99999.58;255267;1107;115334;-69
2021/10/02 17:38:22;;;;;;;22.25;14.00;;;;;;;15.12;62.59;100017.23;254944;1107;117471;-68
2021/10/02 17:43:26;;;;;;;23.63;15.23;;;;;;;15.05;62.98;100024.69;254272;1107;118398;-68
2021/10/02 17:48:33;;;;;;;21.88;13.18;;;;;;;14.95;62.91;100016.58;253747;1107;116241;-71
2021/10/02 17:53:39;;;;;;;20.35;12.50;;;;;;;14.88;62.86;100019.47;253543;1103;115739;-72
2021/10/02 17:58:45;;;;;;;20.93;14.35;;;;;;;14.84;63.32;100021.04;252829;1107;139967;-71
2021/10/02 18:03:49;;;;;;;24.95;13.75;;;;;;;14.75;63.50;100017.20;252910;1107;116119;-71
2021/10/02 18:08:54;;;;;;;20.58;14.45;;;;;;;14.66;63.61;100019.55;253345;1107;116270;-71
2021/10/02 18:13:59;;;;;;;17.35;13.73;;;;;;;14.59;63.57;100016.27;253114;1107;115443;-71
2021/10/02 18:19:03;;;;;;;26.43;13.78;;;;;;;14.52;63.61;100025.57;256286;1108;115332;-69
2021/10/02 18:24:08;;;;;;;16.00;10.93;;;;;;;14.44;63.85;100022.27;254041;1107;118153;-68
2021/10/02 18:29:11;;;;;;;14.85;10.78;;;;;;;14.34;63.43;100032.08;254311;1106;115659;-71
2021/10/02 18:34:15;;;;;;;11.43;9.23;;;;;;;14.24;63.83;100026.59;253321;1107;115306;-71
2021/10/02 18:39:18;;;;;;;15.68;10.23;;;;;;;14.21;64.23;100030.58;255057;1107;115550;-71
2021/10/02 18:44:21;;;;;;;16.00;11.18;;;;;;;14.20;64.22;100028.96;256111;1106;116173;-68
2021/10/02 18:49:24;;;;;;;20.48;12.40;;;;;;;14.18;64.00;100027.59;256048;1107;115679;-69
2021/10/02 18:54:28;;;;;;;14.90;9.60;;;;;;;14.09;63.71;100025.34;256133;1107;116687;-69
2021/10/02 18:59:31;;;;;;;12.77;10.00;;;;;;;14.00;64.41;100032.23;255348;1107;115685;-70
2021/10/02 19:04:34;;;;;;;14.98;10.60;;;;;;;13.95;64.29;100023.31;253267;1107;117013;-70
2021/10/02 19:09:38;;;;;;;18.88;10.60;;;;;;;13.90;64.40;100026.73;253181;1107;115463;-70
2021/10/02 19:14:42;;;;;;;18.18;12.03;;;;;;;13.84;64.47;100014.33;253107;1107;115843;-70
2021/10/02 19:19:46;;;;;;;18.38;11.75;;;;;;;13.75;64.30;100019.33;254199;1102;115898;-70
2021/10/02 19:24:49;;;;;;;18.80;12.50;;;;;;;13.67;64.23;100022.43;253095;1107;115309;-69
2021/10/02 19:29:53;;;;;;;18.03;10.28;;;;;;;13.58;64.27;100015.06;254767;1102;137325;-69
2021/10/02 19:34:57;;;;;;;17.15;10.15;;;;;;;13.47;64.79;100020.27;254091;1107;116000;-69
2021/10/02 19:40:01;;;;;;;17.85;10.45;;;;;;;13.43;64.51;100023.70;255817;1107;115361;-69
2021/10/02 19:45:08;;;;;;;23.10;12.53;;;;;;;13.38;65.06;100012.92;254899;1107;115636;-70
2021/10/02 19:50:16;;;;;;;25.43;11.33;;;;;;;13.36;65.26;100015.03;255438;1107;115833;-70
2021/10/02 19:55:20;;;;;;;16.68;11.43;;;;;;;13.36;65.42;100020.39;254341;1107;116117;-69
2021/10/02 20:00:24;;;;;;;15.55;11.73;;;;;;;13.31;65.30;100017.63;254265;1107;115763;-69
2021/10/02 20:05:28;;;;;;;18.33;10.08;;;;;;;13.23;65.62;100018.03;253503;1107;116609;-69
2021/10/02 20:10:32;;;;;;;13.75;8.90;;;;;;;13.17;65.65;99994.92;254915;1107;119645;-68
2021/10/02 20:15:36;;;;;;;17.40;12.30;;;;;;;13.14;65.23;99986.32;253004;1107;115807;-69
2021/10/02 20:20:40;;;;;;;15.53;11.23;;;;;;;13.10;65.86;99977.16;254130;1107;115691;-69
2021/10/02 20:25:47;;;;;;;15.68;11.08;;;;;;;13.05;65.69;99970.91;256290;1107;115768;-70
2021/10/02 20:30:53;;;;;;;13.80;10.37;;;;;;;13.00;65.65;99970.83;254142;1107;117657;-69
2021/10/02 20:35:57;;;;;;;11.60;9.96;;;;;;;12.97;65.79;99984.70;254242;1107;115957;-69
2021/10/02 20:41:01;;;;;;;15.33;10.85;;;;;;;12.92;65.83;99987.29;253503;1107;114822;-69
2021/10/02 20:46:05;;;;;;;14.45;10.35;;;;;;;12.88;65.89;99981.61;253124;1102;115219;-69
2021/10/02 20:51:10;;;;;;;20.40;10.98;;;;;;;12.85;65.36;99974.06;254307;1107;115695;-69
2021/10/02 20:56:18;;;;;;;13.85;9.60;;;;;;;12.78;66.16;99966.23;256248;1107;115583;-70
2021/10/02 21:01:27;;;;;;;14.50;9.93;;;;;;;12.76;65.96;99975.55;255075;1107;114806;-69
2021/10/02 21:06:31;;;;;;;12.95;9.85;;;;;;;12.68;65.93;99967.92;256068;1107;115792;-70
2021/10/02 21:11:35;;;;;;;14.83;9.48;;;;;;;12.60;65.84;99968.31;256187;1106;115744;-70
2021/10/02 21:16:39;;;;;;;13.55;10.05;;;;;;;12.59;66.00;99972.03;255992;1107;115396;-69
2021/10/02 21:21:43;;;;;;;13.53;11.00;;;;;;;12.60;65.81;99968.31;254227;1101;116601;-69
2021/10/02 21:26:47;;;;;;;12.80;9.28;;;;;;;12.56;66.09;99959.15;253680;1107;115977;-69
2021/10/02 21:31:52;;;;;;;13.93;10.13;;;;;;;12.45;66.19;99967.02;255039;1107;116083;-69
2021/10/02 21:36:57;;;;;;;13.93;9.77;;;;;;;12.36;66.35;99962.30;255352;1107;115604;-69
2021/10/02 21:42:01;;;;;;;17.48;11.10;;;;;;;12.29;66.32;99962.44;255984;1107;115744;-69
2021/10/02 21:47:05;;;;;;;13.83;9.25;;;;;;;12.29;65.75;99978.48;253251;1107;115083;-68
2021/10/02 21:52:11;;;;;;;18.38;10.88;;;;;;;12.28;66.17;99974.17;254335;1107;115115;-68
2021/10/02 21:57:16;;;;;;;17.73;8.88;;;;;;;12.23;66.06;99978.64;255869;1107;115570;-69
2021/10/02 22:02:23;;;;;;;13.78;9.70;;;;;;;12.21;66.27;99975.40;255614;1107;115191;-69
2021/10/02 22:07:26;;;;;;;;;;;;;;;12.14;66.11;99981.70;252930;1107;115692;-71
2021/10/02 22:12:31;;;;;;;19.75;10.33;;;;;;;12.04;66.38;99981.49;253877;1107;104554;-68
2021/10/02 22:17:35;;;;;;;15.68;11.28;;;;;;;11.98;66.56;99978.95;254210;1107;114956;-68
2021/10/02 22:22:38;;;;;;;11.50;8.70;;;;;;;11.96;66.15;99986.39;253695;1107;115678;-68
2021/10/02 22:27:43;;;;;;;12.98;9.38;;;;;;;11.96;66.10;99983.72;252960;1107;115230;-68
2021/10/02 22:32:48;;;;;;;17.63;10.10;;;;;;;11.92;66.08;99978.06;253815;1107;115235;-68
2021/10/02 22:37:52;;;;;;;21.53;10.30;;;;;;;11.89;66.39;99977.73;253909;1107;115484;-67
2021/10/02 22:42:57;;;;;;;11.38;8.40;;;;;;;11.80;66.09;99978.09;253701;1107;115838;-68
2021/10/02 22:48:01;;;;;;;18.23;9.40;;;;;;;11.74;66.43;99976.33;253476;1108;115348;-71
2021/10/02 22:53:05;;;;;;;9.78;7.98;;;;;;;11.66;66.49;99974.02;252966;1107;115533;-68
2021/10/02 22:58:12;;;;;;;11.85;6.98;;;;;;;11.68;66.61;99982.61;256099;1107;115646;-68
2021/10/02 23:03:16;;;;;;;13.40;8.43;;;;;;;11.71;66.04;99981.33;256199;1107;115564;-68
2021/10/02 23:08:18;;;;;;;12.50;8.05;;;;;;;11.73;66.63;99982.72;256080;1106;115759;-69
2021/10/02 23:13:22;;;;;;;9.98;7.23;;;;;;;11.75;66.01;99982.48;255145;1107;115325;-68
2021/10/02 23:18:32;;;;;;;10.00;8.00;;;;;;;11.69;66.45;99981.56;256156;1107;115092;-69
2021/10/02 23:23:38;;;;;;;10.58;7.93;;;;;;;11.66;66.49;99982.03;254864;1107;115436;-68
2021/10/02 23:28:46;;;;;;;12.13;8.30;;;;;;;11.65;66.48;99982.27;255848;1107;115716;-68
2021/10/02 23:33:50;;;;;;;10.38;6.65;;;;;;;11.65;66.74;99993.76;255456;1107;115107;-68
2021/10/02 23:38:55;;;;;;;12.30;8.28;;;;;;;11.67;66.27;99985.52;253114;1107;115628;-68